Time;durP1;ratioP1;P1;durP2;ratioP2;P2;SDS_P1;SDS_P2;PMS_P1;PMS_P2;Temp;Humidity;BMP_temperature;BMP_pressure;BME280_temperature;BME280_humidity;BME280_pressure;Samples;Min_cycle;Max_cycle;Signal;HPM_P1;HPM_P2
2022/03/09 00:02:24;;;;;;;;;;;22.30;26.80;;;;;;5046431;28;19925;-65
2022/03/09 00:04:51;;;;;;;;;;;22.30;26.80;;;;;;5048416;28;19995;-65
2022/03/09 00:07:19;;;;;;;;;;;22.30;26.80;;;;;;5045659;28;20321;-65
2022/03/09 00:09:46;;;;;;;;;;;22.30;26.80;;;;;;5048290;28;19956;-65
2022/03/09 00:12:12;;;;;;;;;;;22.30;26.80;;;;;;5046078;28;19932;-65
2022/03/09 00:14:39;;;;;;;;;;;22.20;26.80;;;;;;5047818;28;19924;-65
2022/03/09 00:17:06;;;;;;;;;;;22.20;26.80;;;;;;5046548;28;20325;-65
2022/03/09 00:19:33;;;;;;;;;;;22.20;26.80;;;;;;5046457;28;20345;-65
2022/03/09 00:22:01;;;;;;;;;;;22.20;26.80;;;;;;5046564;28;19929;-65
2022/03/09 00:24:56;;;;;;;;;;;22.20;26.80;;;;;;5046795;28;19931;-65
2022/03/09 00:27:23;;;;;;;;;;;22.20;26.80;;;;;;5045597;28;20169;-65
2022/03/09 00:29:50;;;;;;;;;;;22.20;26.80;;;;;;5047129;28;19990;-65
2022/03/09 00:32:17;;;;;;;;;;;22.20;26.80;;;;;;5046534;28;20034;-65
2022/03/09 00:34:44;;;;;;;;;;;22.20;26.90;;;;;;5047666;28;20327;-65
2022/03/09 00:37:11;;;;;;;;;;;22.20;26.90;;;;;;5046031;28;19971;-65
2022/03/09 00:39:38;;;;;;;;;;;22.20;26.90;;;;;;5047568;28;19925;-65
2022/03/09 00:42:05;;;;;;;;;;;22.20;26.90;;;;;;5046390;28;19925;-65
2022/03/09 00:44:33;;;;;;;;;;;22.20;26.90;;;;;;5047047;28;19948;-65
2022/03/09 00:47:01;;;;;;;;;;;22.20;26.90;;;;;;5046174;28;19928;-65
2022/03/09 00:52:22;;;;;;;;;;;22.20;26.90;;;;;;5045379;28;19970;-65
2022/03/09 00:54:50;;;;;;;;;;;22.20;26.90;;;;;;5047407;28;20476;-65
2022/03/09 00:57:17;;;;;;;;;;;22.20;27.30;;;;;;5045703;28;19975;-65
2022/03/09 00:59:44;;;;;;;;;;;22.20;26.90;;;;;;5046936;28;19971;-65
2022/03/09 01:02:11;;;;;;;;;;;22.10;26.80;;;;;;5045865;28;19936;-65
2022/03/09 01:04:40;;;;;;;;;;;22.10;27.30;;;;;;5047357;28;19959;-65
2022/03/09 01:07:07;;;;;;;;;;;22.20;26.90;;;;;;5046055;28;19929;-65
2022/03/09 01:09:34;;;;;;;;;;;22.10;26.80;;;;;;5047066;28;20085;-65
2022/03/09 01:12:01;;;;;;;;;;;22.10;26.90;;;;;;5045618;28;19929;-65
2022/03/09 01:14:28;;;;;;;;;;;22.10;26.90;;;;;;5046853;28;19971;-65
2022/03/09 01:16:55;;;;;;;;;;;22.10;26.90;;;;;;5057914;28;20329;-65
2022/03/09 01:19:22;;;;;;;;;;;22.10;26.90;;;;;;5046222;28;19929;-65
2022/03/09 01:21:49;;;;;;;;;;;22.10;26.90;;;;;;5046305;28;19986;-65
2022/03/09 01:27:24;;;;;;;;;;;22.10;26.90;;;;;;5045607;28;19994;-65
2022/03/09 01:29:51;;;;;;;;;;;22.10;26.90;;;;;;5049465;28;19929;-65
2022/03/09 01:32:21;;;;;;;;;;;22.10;26.90;;;;;;5049518;28;20022;-65
2022/03/09 01:34:49;;;;;;;;;;;22.10;27.00;;;;;;5050767;28;19925;-65
2022/03/09 01:37:16;;;;;;;;;;;22.00;27.00;;;;;;5049311;28;19967;-65
2022/03/09 01:39:43;;;;;;;;;;;22.10;27.00;;;;;;5051180;28;19967;-65
2022/03/09 01:42:10;;;;;;;;;;;22.00;27.00;;;;;;5049296;28;19994;-65
2022/03/09 01:44:37;;;;;;;;;;;22.00;27.00;;;;;;5050408;28;20095;-65
2022/03/09 01:47:04;;;;;;;;;;;22.00;27.00;;;;;;5048387;28;19960;-65
2022/03/09 01:52:24;;;;;;;;;;;22.00;27.00;;;;;;5048221;28;20474;-65
2022/03/09 01:54:54;;;;;;;;;;;22.00;27.00;;;;;;5050758;28;20445;-65
2022/03/09 01:57:21;;;;;;;;;;;22.00;27.00;;;;;;5049201;28;19928;-65
2022/03/09 01:59:49;;;;;;;;;;;22.00;27.00;;;;;;5050594;28;19929;-65
2022/03/09 02:02:16;;;;;;;;;;;22.00;27.00;;;;;;5048698;28;19983;-65
2022/03/09 02:04:44;;;;;;;;;;;22.00;27.00;;;;;;5050589;28;19948;-65
2022/03/09 02:07:11;;;;;;;;;;;22.00;27.00;;;;;;5048921;28;20355;-65
2022/03/09 02:09:41;;;;;;;;;;;22.00;27.00;;;;;;5049675;28;19975;-65
2022/03/09 02:12:11;;;;;;;;;;;22.00;27.10;;;;;;5048888;28;20589;-65
2022/03/09 02:14:45;;;;;;;;;;;21.90;27.00;;;;;;5049771;28;19925;-65
2022/03/09 02:17:14;;;;;;;;;;;22.00;27.10;;;;;;5049005;28;20266;-65
2022/03/09 02:19:42;;;;;;;;;;;22.00;27.10;;;;;;5050019;28;20305;-65
2022/03/09 02:22:25;;;;;;;;;;;22.00;27.10;;;;;;5049024;28;19925;-64
2022/03/09 02:24:52;;;;;;;;;;;22.00;27.00;;;;;;5049687;28;19932;-65
2022/03/09 02:27:20;;;;;;;;;;;22.00;27.10;;;;;;5048483;28;19925;-65
2022/03/09 02:29:48;;;;;;;;;;;21.90;27.00;;;;;;5049825;28;19928;-65
2022/03/09 02:32:16;;;;;;;;;;;22.00;27.00;;;;;;5048451;28;19974;-65
2022/03/09 02:34:43;;;;;;;;;;;22.00;27.00;;;;;;5049805;28;20390;-65
2022/03/09 02:37:10;;;;;;;;;;;22.00;27.00;;;;;;5080624;28;20535;-65
2022/03/09 02:39:37;;;;;;;;;;;21.90;27.00;;;;;;5049515;28;19982;-65
2022/03/09 02:42:07;;;;;;;;;;;21.90;27.00;;;;;;5048274;28;20328;-65
2022/03/09 02:45:06;;;;;;;;;;;21.90;27.00;;;;;;5081405;28;19925;-65
2022/03/09 02:47:33;;;;;;;;;;;21.90;27.00;;;;;;5047783;28;19925;-65
2022/03/09 02:50:00;;;;;;;;;;;21.90;27.00;;;;;;5049748;28;19929;-65
2022/03/09 02:52:27;;;;;;;;;;;21.90;27.10;;;;;;5047904;28;20244;-64
2022/03/09 02:54:54;;;;;;;;;;;21.90;27.10;;;;;;5049608;28;19928;-65
2022/03/09 02:57:21;;;;;;;;;;;21.90;27.10;;;;;;5047896;28;20348;-65
2022/03/09 02:59:49;;;;;;;;;;;21.90;27.10;;;;;;5049289;28;19947;-65
2022/03/09 03:02:16;;;;;;;;;;;21.90;27.10;;;;;;5047732;28;19933;-64
2022/03/09 03:04:43;;;;;;;;;;;21.90;27.10;;;;;;5049232;28;19925;-65
2022/03/09 03:07:10;;;;;;;;;;;21.90;27.10;;;;;;5047756;28;19925;-64
2022/03/09 03:12:26;;;;;;;;;;;21.80;27.10;;;;;;5047518;28;19929;-64
2022/03/09 03:14:52;;;;;;;;;;;21.80;27.10;;;;;;5080325;28;19971;-64
2022/03/09 03:17:20;;;;;;;;;;;21.80;27.10;;;;;;5047565;28;19929;-64
2022/03/09 03:19:47;;;;;;;;;;;21.90;27.10;;;;;;5048984;28;20011;-64
2022/03/09 03:22:14;;;;;;;;;;;21.80;27.10;;;;;;5047778;28;19972;-65
2022/03/09 03:24:41;;;;;;;;;;;21.80;27.10;;;;;;5048514;28;20344;-65
2022/03/09 03:27:08;;;;;;;;;;;21.80;27.10;;;;;;5047799;28;19925;-64
2022/03/09 03:29:35;;;;;;;;;;;21.80;27.10;;;;;;5048457;28;20353;-65
2022/03/09 03:32:02;;;;;;;;;;;21.80;27.10;;;;;;5047573;28;20402;-64
2022/03/09 03:37:24;;;;;;;;;;;21.80;27.10;;;;;;5046635;28;20034;-65
2022/03/09 03:39:52;;;;;;;;;;;21.80;27.10;;;;;;5048658;28;19925;-64
2022/03/09 03:42:19;;;;;;;;;;;21.80;27.10;;;;;;5045506;28;20306;-65
2022/03/09 03:44:46;;;;;;;;;;;21.80;27.10;;;;;;5048590;28;20342;-64
2022/03/09 03:47:13;;;;;;;;;;;21.80;27.20;;;;;;5046790;28;19925;-65
2022/03/09 03:49:40;;;;;;;;;;;21.80;27.20;;;;;;5048191;28;20015;-64
2022/03/09 03:52:07;;;;;;;;;;;21.80;27.20;;;;;;5046846;28;19925;-65
2022/03/09 03:54:34;;;;;;;;;;;21.80;27.20;;;;;;5047585;28;19924;-66
2022/03/09 03:57:01;;;;;;;;;;;21.80;27.20;;;;;;5047695;28;19932;-64
2022/03/09 04:02:23;;;;;;;;;;;21.80;27.20;;;;;;5046551;28;19925;-65
2022/03/09 04:04:53;;;;;;;;;;;21.80;27.20;;;;;;5047836;28;19929;-65
2022/03/09 04:07:20;;;;;;;;;;;21.80;27.20;;;;;;5045399;28;20206;-65
2022/03/09 04:09:47;;;;;;;;;;;21.80;27.20;;;;;;5048296;28;19925;-64
2022/03/09 04:12:14;;;;;;;;;;;21.80;27.20;;;;;;5046504;28;19982;-64
2022/03/09 04:14:41;;;;;;;;;;;21.80;27.20;;;;;;5047733;28;19975;-64
2022/03/09 04:17:08;;;;;;;;;;;21.80;27.20;;;;;;5046736;28;19925;-64
2022/03/09 04:19:35;;;;;;;;;;;21.80;27.20;;;;;;5047556;28;20370;-64
2022/03/09 04:22:04;;;;;;;;;;;21.80;27.20;;;;;;5046507;28;20166;-65
2022/03/09 04:24:56;;;;;;;;;;;21.80;27.20;;;;;;5046812;28;19933;-64
2022/03/09 04:27:22;;;;;;;;;;;21.90;27.20;;;;;;5046553;28;19924;-64
2022/03/09 04:29:49;;;;;;;;;;;21.80;27.20;;;;;;5048157;28;19978;-64
2022/03/09 04:32:16;;;;;;;;;;;21.80;27.20;;;;;;5045863;28;19932;-65
2022/03/09 04:34:43;;;;;;;;;;;21.80;27.20;;;;;;5047397;28;20015;-65
2022/03/09 04:37:10;;;;;;;;;;;21.80;27.20;;;;;;5045979;28;20050;-65
2022/03/09 04:39:37;;;;;;;;;;;21.80;27.30;;;;;;5045624;28;19971;-65
2022/03/09 04:42:04;;;;;;;;;;;21.80;27.30;;;;;;5045114;28;20281;-65
2022/03/09 04:44:31;;;;;;;;;;;21.80;27.30;;;;;;5027171;28;20093;-65
2022/03/09 04:46:58;;;;;;;;;;;21.80;27.30;;;;;;5039750;28;20401;-65
2022/03/09 04:52:30;;;;;;;;;;;21.80;27.30;;;;;;5044354;28;19925;-65
2022/03/09 04:54:57;;;;;;;;;;;21.80;27.30;;;;;;5026971;28;20016;-65
2022/03/09 04:57:24;;;;;;;;;;;21.80;27.30;;;;;;5027641;28;19929;-65
2022/03/09 04:59:51;;;;;;;;;;;21.80;27.30;;;;;;5041952;28;20462;-65
2022/03/09 05:02:18;;;;;;;;;;;21.70;27.30;;;;;;5045187;28;20294;-65
2022/03/09 05:04:45;;;;;;;;;;;21.70;27.30;;;;;;5040054;28;19940;-65
2022/03/09 05:07:12;;;;;;;;;;;21.70;27.30;;;;;;5049181;28;20145;-65
2022/03/09 05:09:39;;;;;;;;;;;21.70;27.30;;;;;;5051415;28;19960;-65
2022/03/09 05:12:06;;;;;;;;;;;21.70;27.30;;;;;;5049665;28;19936;-65
2022/03/09 05:14:34;;;;;;;;;;;21.70;27.30;;;;;;5051257;28;19931;-65
2022/03/09 05:17:01;;;;;;;;;;;21.70;27.30;;;;;;5050369;28;20156;-65
2022/03/09 05:19:27;;;;;;;;;;;21.70;27.30;;;;;;5050511;28;19925;-65
2022/03/09 05:21:55;;;;;;;;;;;21.70;27.30;;;;;;5050130;28;19972;-65
2022/03/09 05:24:39;;;;;;;;;;;21.70;27.30;;;;;;5050787;28;19925;-65
2022/03/09 05:27:06;;;;;;;;;;;21.80;27.30;;;;;;5081785;28;20082;-65
2022/03/09 05:29:33;;;;;;;;;;;21.70;27.30;;;;;;5050559;28;20378;-65
2022/03/09 05:32:00;;;;;;;;;;;21.70;27.30;;;;;;5049911;28;19929;-65
2022/03/09 05:37:28;;;;;;;;;;;21.70;27.30;;;;;;5048947;28;20397;-65
2022/03/09 05:39:55;;;;;;;;;;;21.70;27.30;;;;;;5051326;28;20010;-65
2022/03/09 05:42:22;;;;;;;;;;;21.70;27.30;;;;;;5048152;28;19983;-65
2022/03/09 05:44:49;;;;;;;;;;;21.70;27.30;;;;;;5049631;28;19947;-65
2022/03/09 05:47:36;;;;;;;;;;;21.80;27.30;;;;;;5048219;28;19964;-65
2022/03/09 05:50:03;;;;;;;;;;;21.80;27.30;;;;;;5050654;28;20067;-65
2022/03/09 05:52:30;;;;;;;;;;;21.80;27.30;;;;;;5056600;28;19933;-65
2022/03/09 05:54:58;;;;;;;;;;;21.80;27.30;;;;;;5056787;28;19929;-65
2022/03/09 05:57:25;;;;;;;;;;;21.80;27.30;;;;;;5049387;28;19924;-65
2022/03/09 05:59:52;;;;;;;;;;;21.80;27.30;;;;;;5081893;28;20015;-65
2022/03/09 06:02:19;;;;;;;;;;;21.80;27.20;;;;;;5053727;28;19929;-65
2022/03/09 06:04:47;;;;;;;;;;;21.80;27.20;;;;;;5046680;28;19924;-65
2022/03/09 06:07:14;;;;;;;;;;;21.90;27.20;;;;;;5045717;28;19925;-65
2022/03/09 06:09:59;;;;;;;;;;;21.80;27.10;;;;;;5048879;28;19968;-65
2022/03/09 06:12:26;;;;;;;;;;;21.80;27.00;;;;;;5050429;28;19925;-65
2022/03/09 06:14:55;;;;;;;;;;;21.80;27.00;;;;;;5059659;28;19925;-65
2022/03/09 06:17:22;;;;;;;;;;;21.80;27.00;;;;;;5062882;28;19939;-65
2022/03/09 06:19:51;;;;;;;;;;;21.80;27.00;;;;;;5048393;28;19925;-65
2022/03/09 06:22:19;;;;;;;;;;;21.80;26.90;;;;;;5044669;28;19929;-66
2022/03/09 06:24:46;;;;;;;;;;;21.80;27.00;;;;;;5047616;28;20369;-68
2022/03/09 06:27:13;;;;;;;;;;;21.80;27.00;;;;;;5048031;28;19929;-70
2022/03/09 06:29:40;;;;;;;;;;;21.90;27.00;;;;;;5049303;28;19930;-70
2022/03/09 06:32:08;;;;;;;;;;;21.90;27.00;;;;;;5049825;28;20374;-70
2022/03/09 06:34:35;;;;;;;;;;;21.90;26.90;;;;;;5047763;28;19928;-70
2022/03/09 06:37:02;;;;;;;;;;;22.00;27.00;;;;;;5051560;28;19925;-67
2022/03/09 06:39:29;;;;;;;;;;;22.00;26.90;;;;;;5051362;28;20374;-68
2022/03/09 06:41:56;;;;;;;;;;;22.10;27.50;;;;;;5048116;28;20401;-68
2022/03/09 06:44:24;;;;;;;;;;;22.10;27.60;;;;;;5046974;28;20404;-70
2022/03/09 06:46:51;;;;;;;;;;;22.20;27.70;;;;;;5051169;28;20336;-69
2022/03/09 06:49:18;;;;;;;;;;;22.30;27.90;;;;;;5050215;28;19925;-73
2022/03/09 06:51:45;;;;;;;;;;;22.40;28.00;;;;;;5048692;28;20181;-69
2022/03/09 06:54:14;;;;;;;;;;;22.40;27.90;;;;;;5048378;28;20262;-69
2022/03/09 06:56:41;;;;;;;;;;;22.50;27.90;;;;;;5050803;28;19925;-70
2022/03/09 06:59:08;;;;;;;;;;;22.60;28.00;;;;;;5048332;28;19925;-70
2022/03/09 07:01:35;;;;;;;;;;;22.70;28.00;;;;;;5049584;28;19982;-69
2022/03/09 07:04:03;;;;;;;;;;;22.70;27.90;;;;;;5051274;28;19935;-69
2022/03/09 07:06:30;;;;;;;;;;;22.80;27.70;;;;;;5046836;28;19959;-73
2022/03/09 07:08:57;;;;;;;;;;;22.90;27.80;;;;;;5038218;28;19924;-69
2022/03/09 07:11:24;;;;;;;;;;;22.90;27.50;;;;;;5050457;28;20382;-69
2022/03/09 07:13:51;;;;;;;;;;;23.00;27.50;;;;;;5042871;28;19929;-68
2022/03/09 07:19:07;;;;;;;;;;;23.10;27.60;;;;;;5042083;28;19939;-69
2022/03/09 07:21:34;;;;;;;;;;;23.20;28.00;;;;;;5048630;28;20023;-66
2022/03/09 07:24:01;;;;;;;;;;;23.30;27.40;;;;;;5049433;28;19970;-70
2022/03/09 07:26:28;;;;;;;;;;;23.30;27.30;;;;;;5047965;28;19979;-71
2022/03/09 07:28:56;;;;;;;;;;;23.40;27.40;;;;;;5041982;28;19936;-69
2022/03/09 07:31:23;;;;;;;;;;;23.40;27.30;;;;;;5049101;28;19928;-69
2022/03/09 07:33:51;;;;;;;;;;;23.50;27.30;;;;;;5049761;28;19971;-69
2022/03/09 07:36:18;;;;;;;;;;;23.60;27.70;;;;;;5049412;28;19924;-68
2022/03/09 07:38:45;;;;;;;;;;;23.60;27.30;;;;;;5045142;28;19924;-71
2022/03/09 07:41:32;;;;;;;;;;;23.70;27.20;;;;;;5050052;28;19975;-70
2022/03/09 07:43:59;;;;;;;;;;;23.80;27.30;;;;;;5080238;28;19924;-70
2022/03/09 07:46:26;;;;;;;;;;;23.80;27.20;;;;;;5046990;28;19924;-69
2022/03/09 07:48:53;;;;;;;;;;;23.90;27.10;;;;;;5040231;28;20204;-68
2022/03/09 07:51:20;;;;;;;;;;;23.90;26.90;;;;;;5080738;28;19924;-73
2022/03/09 07:53:47;;;;;;;;;;;24.00;26.80;;;;;;5049269;28;19979;-70
2022/03/09 07:56:14;;;;;;;;;;;24.10;26.90;;;;;;5049679;28;19925;-70
2022/03/09 07:58:41;;;;;;;;;;;24.10;26.80;;;;;;5044104;28;20010;-69
2022/03/09 08:01:09;;;;;;;;;;;24.20;26.90;;;;;;5048242;28;20015;-71
2022/03/09 08:03:36;;;;;;;;;;;24.30;26.80;;;;;;5047934;28;19987;-67
2022/03/09 08:06:05;;;;;;;;;;;24.30;26.80;;;;;;5049298;28;19924;-74
2022/03/09 08:08:35;;;;;;;;;;;24.40;26.80;;;;;;5047168;28;20620;-71
2022/03/09 08:11:02;;;;;;;;;;;24.50;26.80;;;;;;5048844;28;19925;-68
2022/03/09 08:13:29;;;;;;;;;;;24.50;26.80;;;;;;5050206;28;19925;-70
2022/03/09 08:15:58;;;;;;;;;;;24.60;26.70;;;;;;5049182;28;20251;-72
2022/03/09 08:18:25;;;;;;;;;;;24.70;26.70;;;;;;5050770;28;19925;-70
2022/03/09 08:20:52;;;;;;;;;;;24.70;26.60;;;;;;5062361;28;19925;-71
2022/03/09 08:23:19;;;;;;;;;;;24.70;26.50;;;;;;5049321;28;19925;-78
2022/03/09 08:25:46;;;;;;;;;;;24.80;26.50;;;;;;5050496;28;19925;-69
2022/03/09 08:28:13;;;;;;;;;;;24.90;26.60;;;;;;5049613;28;20015;-73
2022/03/09 08:30:40;;;;;;;;;;;24.90;26.50;;;;;;5040383;28;19929;-74
2022/03/09 08:33:08;;;;;;;;;;;25.00;26.50;;;;;;5039610;28;19929;-71
2022/03/09 08:35:35;;;;;;;;;;;25.00;26.50;;;;;;5037573;28;19990;-76
2022/03/09 08:38:02;;;;;;;;;;;25.00;26.30;;;;;;5029056;28;19937;-72
2022/03/09 08:40:30;;;;;;;;;;;25.10;26.40;;;;;;5039134;28;19990;-74
2022/03/09 08:42:57;;;;;;;;;;;25.10;26.30;;;;;;5038484;28;20098;-77
2022/03/09 08:45:24;;;;;;;;;;;25.20;26.50;;;;;;5040701;28;19936;-74
2022/03/09 08:47:51;;;;;;;;;;;25.20;26.50;;;;;;5036805;28;20634;-73
2022/03/09 08:50:18;;;;;;;;;;;25.10;26.40;;;;;;5041389;28;19925;-76
2022/03/09 08:53:05;;;;;;;;;;;25.10;26.40;;;;;;5040607;28;19935;-68
2022/03/09 08:55:32;;;;;;;;;;;25.10;26.40;;;;;;5044403;28;19986;-76
2022/03/09 08:58:00;;;;;;;;;;;25.10;26.50;;;;;;5042555;28;19951;-74
2022/03/09 09:00:27;;;;;;;;;;;25.10;26.50;;;;;;5044042;28;19924;-71
2022/03/09 09:02:55;;;;;;;;;;;25.10;26.50;;;;;;5040659;28;20301;-73
2022/03/09 09:05:25;;;;;;;;;;;25.10;26.50;;;;;;5046302;28;19936;-77
2022/03/09 09:07:52;;;;;;;;;;;25.10;26.50;;;;;;5045307;28;19940;-78
2022/03/09 09:10:19;;;;;;;;;;;25.10;26.50;;;;;;5046050;28;19925;-74
2022/03/09 09:12:46;;;;;;;;;;;25.10;26.50;;;;;;5039486;28;19933;-74
2022/03/09 09:15:14;;;;;;;;;;;25.10;26.50;;;;;;5052389;28;20509;-68
2022/03/09 09:17:41;;;;;;;;;;;25.10;26.00;;;;;;5063675;28;19933;-70
2022/03/09 09:20:26;;;;;;;;;;;24.90;25.20;;;;;;5055959;28;19932;-72
2022/03/09 09:22:55;;;;;;;;;;;24.80;25.60;;;;;;5039755;28;19987;-72
2022/03/09 09:25:37;;;;;;;;;;;24.80;25.80;;;;;;5045177;28;20398;-76
2022/03/09 09:28:04;;;;;;;;;;;24.80;25.90;;;;;;5043145;28;19982;-74
2022/03/09 09:30:31;;;;;;;;;;;24.90;26.00;;;;;;5046354;28;20393;-74
2022/03/09 09:32:59;;;;;;;;;;;24.90;26.10;;;;;;5037454;28;19925;-67
2022/03/09 09:35:26;;;;;;;;;;;24.90;26.10;;;;;;5043702;28;20374;-73
2022/03/09 09:37:54;;;;;;;;;;;25.00;26.10;;;;;;5046818;28;19932;-75
2022/03/09 09:40:21;;;;;;;;;;;25.10;26.10;;;;;;5045378;28;19932;-70
2022/03/09 09:42:48;;;;;;;;;;;25.10;26.10;;;;;;5046467;28;19931;-76
2022/03/09 09:45:20;;;;;;;;;;;25.10;26.10;;;;;;5044410;28;19931;-71
2022/03/09 09:47:51;;;;;;;;;;;25.20;26.10;;;;;;5046300;28;20024;-68
2022/03/09 09:50:18;;;;;;;;;;;25.30;26.20;;;;;;5048431;28;19947;-75
2022/03/09 09:52:45;;;;;;;;;;;25.30;26.20;;;;;;5051117;28;19971;-77
2022/03/09 09:55:12;;;;;;;;;;;25.40;26.30;;;;;;5061647;28;20282;-73
2022/03/09 09:57:40;;;;;;;;;;;25.40;26.30;;;;;;5072947;28;20282;-73
2022/03/09 10:00:07;;;;;;;;;;;25.40;26.10;;;;;;5073132;28;19932;-74
2022/03/09 10:02:40;;;;;;;;;;;25.40;26.20;;;;;;5072861;28;19928;-70
2022/03/09 10:05:10;;;;;;;;;;;25.40;26.10;;;;;;5056267;28;19925;-74
2022/03/09 10:07:57;;;;;;;;;;;25.50;26.20;;;;;;5050238;28;19979;-73
2022/03/09 10:10:24;;;;;;;;;;;25.50;26.30;;;;;;5051283;28;20374;-77
2022/03/09 10:12:51;;;;;;;;;;;25.50;26.30;;;;;;5052104;28;19925;-72
2022/03/09 10:15:18;;;;;;;;;;;25.50;26.30;;;;;;5050955;28;19924;-74
2022/03/09 10:17:45;;;;;;;;;;;25.60;26.30;;;;;;5046789;28;19929;-76
2022/03/09 10:20:12;;;;;;;;;;;25.60;26.30;;;;;;5046946;28;20425;-76
2022/03/09 10:22:41;;;;;;;;;;;25.60;26.10;;;;;;5047393;28;19960;-73
2022/03/09 10:25:23;;;;;;;;;;;25.60;26.10;;;;;;5047846;28;19932;-72
2022/03/09 10:27:54;;;;;;;;;;;25.70;26.20;;;;;;5044858;28;19925;-71
2022/03/09 10:30:22;;;;;;;;;;;25.70;26.20;;;;;;5048089;28;19970;-69
2022/03/09 10:32:57;;;;;;;;;;;25.70;26.20;;;;;;5050156;28;19925;-72
2022/03/09 10:35:44;;;;;;;;;;;25.70;26.10;;;;;;5056842;28;20471;-71
2022/03/09 10:38:22;;;;;;;;;;;25.70;25.90;;;;;;5046673;28;20392;-72
2022/03/09 10:40:51;;;;;;;;;;;25.70;25.80;;;;;;5050222;28;19925;-72
2022/03/09 10:43:20;;;;;;;;;;;25.80;25.80;;;;;;5050462;28;20024;-75
2022/03/09 10:46:04;;;;;;;;;;;25.80;25.80;;;;;;5050878;28;20366;-75
2022/03/09 10:48:55;;;;;;;;;;;25.80;25.70;;;;;;5042692;28;19982;-74
2022/03/09 10:51:30;;;;;;;;;;;25.80;25.60;;;;;;5031137;28;19979;-74
2022/03/09 10:57:32;;;;;;;;;;;25.90;25.40;;;;;;5047637;28;19954;-74
2022/03/09 11:00:00;;;;;;;;;;;25.90;25.50;;;;;;5049790;28;19925;-69
2022/03/09 11:02:30;;;;;;;;;;;25.90;25.50;;;;;;5048786;28;20009;-70
2022/03/09 11:05:08;;;;;;;;;;;25.90;25.40;;;;;;5050944;28;19925;-70
2022/03/09 11:07:36;;;;;;;;;;;25.90;25.40;;;;;;5048258;28;19990;-73
2022/03/09 11:10:05;;;;;;;;;;;25.90;25.40;;;;;;5047083;28;19925;-71
2022/03/09 11:12:32;;;;;;;;;;;26.00;25.50;;;;;;5049972;28;19931;-70
2022/03/09 11:15:05;;;;;;;;;;;26.00;25.90;;;;;;5050153;28;20047;-70
2022/03/09 11:17:33;;;;;;;;;;;26.00;25.30;;;;;;5049006;28;20886;-69
2022/03/09 11:20:00;;;;;;;;;;;26.00;25.20;;;;;;5046779;28;20053;-69
2022/03/09 11:22:27;;;;;;;;;;;26.00;25.10;;;;;;5050392;28;20046;-69
2022/03/09 11:24:54;;;;;;;;;;;26.00;25.00;;;;;;5049073;28;20326;-70
2022/03/09 11:27:22;;;;;;;;;;;26.00;25.00;;;;;;5049666;28;19970;-72
2022/03/09 11:29:51;;;;;;;;;;;26.00;24.90;;;;;;5046791;28;19925;-72
2022/03/09 11:32:32;;;;;;;;;;;26.00;24.90;;;;;;5049315;28;20023;-72
2022/03/09 11:34:59;;;;;;;;;;;26.00;24.80;;;;;;5050331;28;19959;-69
2022/03/09 11:37:34;;;;;;;;;;;26.10;24.80;;;;;;5050758;28;19963;-73
2022/03/09 11:40:12;;;;;;;;;;;26.00;24.60;;;;;;5045874;28;19964;-72
2022/03/09 11:42:39;;;;;;;;;;;26.00;24.50;;;;;;5050712;28;20374;-71
2022/03/09 11:45:29;;;;;;;;;;;26.10;24.60;;;;;;5050691;28;19925;-71
2022/03/09 11:47:57;;;;;;;;;;;26.00;24.50;;;;;;5046080;28;20312;-73
2022/03/09 11:50:25;;;;;;;;;;;26.00;24.40;;;;;;5035721;28;19936;-74
2022/03/09 11:52:53;;;;;;;;;;;26.00;24.50;;;;;;5044279;28;20382;-73
2022/03/09 11:55:20;;;;;;;;;;;26.00;24.50;;;;;;5044076;28;19932;-72
2022/03/09 11:58:02;;;;;;;;;;;26.00;24.50;;;;;;5025796;28;19925;-72
2022/03/09 12:00:29;;;;;;;;;;;26.00;24.50;;;;;;5047310;28;20036;-68
2022/03/09 12:02:56;;;;;;;;;;;26.00;22.20;;;;;;5061738;28;19925;-75
2022/03/09 12:05:38;;;;;;;;;;;25.80;22.90;;;;;;5050719;28;20015;-72
2022/03/09 12:08:09;;;;;;;;;;;25.70;23.60;;;;;;5065792;28;20365;-74
2022/03/09 12:10:40;;;;;;;;;;;25.70;23.90;;;;;;5063741;28;19924;-74
2022/03/09 12:13:11;;;;;;;;;;;25.70;24.10;;;;;;5068858;28;20392;-74
2022/03/09 12:15:58;;;;;;;;;;;25.70;24.20;;;;;;5069038;28;19978;-73
2022/03/09 12:18:40;;;;;;;;;;;25.70;24.20;;;;;;5067350;28;20021;-75
2022/03/09 12:21:08;;;;;;;;;;;25.70;24.30;;;;;;5048485;28;19932;-70
2022/03/09 12:23:55;;;;;;;;;;;25.70;24.40;;;;;;5049901;28;19929;-69
2022/03/09 12:26:42;;;;;;;;;;;25.80;24.50;;;;;;5049075;28;19971;-69
2022/03/09 12:29:29;;;;;;;;;;;25.80;24.60;;;;;;5018419;28;19995;-68
2022/03/09 12:32:05;;;;;;;;;;;25.80;24.60;;;;;;5010921;28;19987;-70
2022/03/09 12:34:37;;;;;;;;;;;25.80;24.60;;;;;;5046043;28;19925;-70
2022/03/09 12:37:09;;;;;;;;;;;25.80;24.70;;;;;;5029232;28;20032;-70
2022/03/09 12:43:13;;;;;;;;;;;25.90;24.60;;;;;;5042342;28;19927;-69
2022/03/09 12:45:54;;;;;;;;;;;25.90;24.50;;;;;;5064544;28;19932;-70
2022/03/09 12:48:21;;;;;;;;;;;25.90;24.50;;;;;;5051383;28;19924;-69
2022/03/09 12:50:49;;;;;;;;;;;25.90;24.50;;;;;;5068512;28;19970;-68
2022/03/09 12:53:22;;;;;;;;;;;25.90;24.50;;;;;;5047749;28;19932;-70
2022/03/09 12:55:49;;;;;;;;;;;25.90;24.60;;;;;;5046902;28;19929;-70
2022/03/09 12:58:36;;;;;;;;;;;25.90;24.60;;;;;;5047761;28;19975;-69
2022/03/09 13:01:03;;;;;;;;;;;25.90;24.60;;;;;;5047184;28;19925;-71
2022/03/09 13:03:31;;;;;;;;;;;25.90;24.60;;;;;;5039372;28;19933;-71
2022/03/09 13:05:58;;;;;;;;;;;26.00;24.60;;;;;;5049241;28;20320;-65
2022/03/09 13:08:32;;;;;;;;;;;26.00;24.70;;;;;;5048907;28;20412;-66
2022/03/09 13:11:00;;;;;;;;;;;25.90;24.80;;;;;;5048928;28;20486;-67
2022/03/09 13:13:31;;;;;;;;;;;25.90;24.80;;;;;;5044959;28;19932;-64
2022/03/09 13:16:02;;;;;;;;;;;26.00;24.70;;;;;;5047449;28;19925;-65
2022/03/09 13:18:31;;;;;;;;;;;26.00;24.70;;;;;;5047264;28;19925;-73
2022/03/09 13:20:58;;;;;;;;;;;26.00;24.60;;;;;;5049132;28;19925;-64
2022/03/09 13:23:27;;;;;;;;;;;26.00;24.70;;;;;;5048829;28;19929;-65
2022/03/09 13:25:54;;;;;;;;;;;26.00;24.60;;;;;;5050952;28;19924;-63
2022/03/09 13:28:29;;;;;;;;;;;25.90;24.50;;;;;;5052285;28;19935;-65
2022/03/09 13:30:56;;;;;;;;;;;25.90;24.40;;;;;;5052587;28;20442;-66
2022/03/09 13:33:24;;;;;;;;;;;25.90;24.40;;;;;;5051770;28;19925;-63
2022/03/09 13:35:52;;;;;;;;;;;25.90;22.60;;;;;;5045712;28;20023;-64
2022/03/09 13:38:21;;;;;;;;;;;25.70;22.70;;;;;;5045408;28;20289;-65
2022/03/09 13:40:48;;;;;;;;;;;25.50;23.10;;;;;;5042423;28;19932;-64
2022/03/09 13:43:15;;;;;;;;;;;25.50;23.60;;;;;;5042546;28;19932;-68
2022/03/09 13:45:42;;;;;;;;;;;25.40;23.80;;;;;;5045003;28;19968;-66
2022/03/09 13:48:22;;;;;;;;;;;25.50;24.10;;;;;;5043605;28;19979;-67
2022/03/09 13:51:03;;;;;;;;;;;25.40;24.20;;;;;;5039646;28;20296;-65
2022/03/09 13:53:34;;;;;;;;;;;25.50;24.30;;;;;;5044042;28;19932;-66
2022/03/09 13:56:03;;;;;;;;;;;25.50;24.40;;;;;;5041877;28;19928;-67
2022/03/09 13:58:38;;;;;;;;;;;25.50;24.40;;;;;;5045384;28;19940;-67
2022/03/09 14:01:06;;;;;;;;;;;25.50;24.50;;;;;;5043439;28;20002;-66
2022/03/09 14:03:41;;;;;;;;;;;25.50;24.60;;;;;;5045960;28;19933;-66
2022/03/09 14:06:17;;;;;;;;;;;25.40;24.50;;;;;;5044591;28;19933;-66
2022/03/09 14:08:45;;;;;;;;;;;25.40;24.70;;;;;;5046356;28;19947;-62
2022/03/09 14:11:19;;;;;;;;;;;25.40;24.70;;;;;;5076163;28;19987;-64
2022/03/09 14:14:06;;;;;;;;;;;25.40;24.80;;;;;;5042550;28;19943;-64
2022/03/09 14:16:38;;;;;;;;;;;25.40;22.70;;;;;;5048307;28;20301;-65
2022/03/09 14:19:07;;;;;;;;;;;25.10;23.60;;;;;;5042760;28;19975;-63
2022/03/09 14:21:37;;;;;;;;;;;24.90;24.10;;;;;;5049265;28;19931;-65
2022/03/09 14:24:04;;;;;;;;;;;24.90;24.40;;;;;;5049103;28;19925;-65
2022/03/09 14:26:36;;;;;;;;;;;24.90;24.60;;;;;;5080430;28;19932;-63
2022/03/09 14:29:03;;;;;;;;;;;24.90;24.60;;;;;;5044997;28;19925;-66
2022/03/09 14:31:32;;;;;;;;;;;24.90;24.90;;;;;;5081432;28;19935;-66
2022/03/09 14:34:00;;;;;;;;;;;24.90;24.80;;;;;;5042240;28;19963;-66
2022/03/09 14:36:27;;;;;;;;;;;24.90;24.90;;;;;;5050616;28;19935;-66
2022/03/09 14:45:57;;;;;;;;;;;25.00;25.10;;;;;;5051788;28;20412;-65
2022/03/09 14:48:24;;;;;;;;;;;24.90;25.10;;;;;;5047712;28;21709;-66
2022/03/09 14:50:51;;;;;;;;;;;24.90;25.10;;;;;;5051301;28;19960;-64
2022/03/09 14:53:19;;;;;;;;;;;24.90;25.20;;;;;;5050284;28;19971;-61
2022/03/09 14:55:48;;;;;;;;;;;24.90;25.20;;;;;;5051000;28;19931;-63
2022/03/09 14:58:15;;;;;;;;;;;25.00;25.30;;;;;;5049827;28;19925;-65
2022/03/09 15:00:42;;;;;;;;;;;24.90;25.30;;;;;;5048291;28;19971;-66
2022/03/09 15:03:10;;;;;;;;;;;24.90;25.40;;;;;;5066340;28;19924;-66
2022/03/09 15:05:37;;;;;;;;;;;24.90;25.40;;;;;;5070414;28;19978;-63
2022/03/09 15:08:04;;;;;;;;;;;24.90;25.40;;;;;;5052946;28;19924;-63
2022/03/09 15:10:31;;;;;;;;;;;24.90;25.40;;;;;;5054779;28;20328;-68